createdAt,value
2022-09-21T00:00:09.894Z,10.23
2022-09-21T00:01:09.956Z,10.22
2022-09-21T00:02:09.621Z,10.23
2022-09-21T00:03:09.573Z,10.31
2022-09-21T00:04:09.576Z,10.32
2022-09-21T00:05:09.555Z,10.35
2022-09-21T00:06:09.823Z,10.37
2022-09-21T00:07:09.657Z,10.36
2022-09-21T00:08:09.626Z,10.37
2022-09-21T00:09:12.443Z,10.29
2022-09-21T00:10:09.621Z,10.24
2022-09-21T00:11:09.897Z,10.22
2022-09-21T00:12:09.517Z,10.16
2022-09-21T00:13:09.440Z,10.15
2022-09-21T00:14:09.443Z,10.16
2022-09-21T00:15:09.831Z,10.14
2022-09-21T00:16:09.960Z,10.08
2022-09-21T00:17:09.534Z,10.1
2022-09-21T00:18:09.459Z,10.14
2022-09-21T00:19:09.449Z,10.14
2022-09-21T00:20:12.454Z,10.15
2022-09-21T00:21:09.826Z,10.1
2022-09-21T00:22:09.543Z,10.08
2022-09-21T00:23:09.553Z,10.06
2022-09-21T00:24:09.528Z,10.06
2022-09-21T00:25:09.550Z,10.05
2022-09-21T00:26:09.821Z,10
2022-09-21T00:27:09.583Z,10.02
2022-09-21T00:28:09.515Z,10.02
2022-09-21T00:29:09.552Z,10.01
2022-09-21T00:30:09.899Z,9.99
2022-09-21T00:31:15.497Z,9.97
2022-09-21T00:32:09.549Z,9.97
2022-09-21T00:33:09.534Z,9.98
2022-09-21T00:34:09.640Z,9.95
2022-09-21T00:35:09.629Z,9.93
2022-09-21T00:36:09.895Z,9.92
2022-09-21T00:37:09.521Z,9.91
2022-09-21T00:38:09.443Z,9.89
2022-09-21T00:39:09.432Z,9.87
2022-09-21T00:40:09.515Z,9.88
2022-09-21T00:41:09.896Z,9.9
2022-09-21T00:42:12.640Z,9.87
2022-09-21T00:43:09.590Z,9.86
2022-09-21T00:44:09.514Z,9.86
2022-09-21T00:45:09.905Z,9.74
2022-09-21T00:46:09.888Z,9.75
2022-09-21T00:47:09.531Z,9.76
2022-09-21T00:48:09.448Z,9.8
2022-09-21T00:49:09.596Z,9.79
2022-09-21T00:50:09.667Z,9.78
2022-09-21T00:51:09.817Z,9.76
2022-09-21T00:52:09.559Z,9.73
2022-09-21T00:53:12.440Z,9.71
2022-09-21T00:54:09.550Z,9.7
2022-09-21T00:55:09.470Z,9.68
2022-09-21T00:56:09.891Z,9.68
2022-09-21T00:57:09.620Z,9.6
2022-09-21T00:58:09.472Z,9.73
2022-09-21T00:59:09.456Z,9.76
2022-09-21T01:00:09.901Z,9.76
2022-09-21T01:01:09.849Z,9.77
2022-09-21T01:02:09.579Z,9.76
2022-09-21T01:03:09.450Z,9.74
2022-09-21T01:04:12.452Z,9.72
2022-09-21T01:05:09.530Z,9.7
2022-09-21T01:06:09.892Z,9.73
2022-09-21T01:07:09.603Z,9.71
2022-09-21T01:08:09.531Z,9.68
2022-09-21T01:09:09.539Z,9.63
2022-09-21T01:10:09.592Z,9.63
2022-09-21T01:11:09.892Z,9.64
2022-09-21T01:12:09.516Z,9.65
2022-09-21T01:13:09.464Z,9.65
2022-09-21T01:14:09.542Z,9.67
2022-09-21T01:15:15.497Z,9.67
2022-09-21T01:16:09.856Z,9.71
2022-09-21T01:17:09.610Z,9.7
2022-09-21T01:18:09.464Z,9.69
2022-09-21T01:19:09.475Z,9.67
2022-09-21T01:20:09.587Z,9.65
2022-09-21T01:21:09.830Z,9.64
2022-09-21T01:22:09.441Z,9.63
2022-09-21T01:23:09.468Z,9.62
2022-09-21T01:24:09.447Z,9.6
2022-09-21T01:25:09.596Z,9.6
2022-09-21T01:26:15.491Z,9.62
2022-09-21T01:27:09.536Z,9.65
2022-09-21T01:28:09.584Z,9.67
2022-09-21T01:29:09.648Z,9.66
2022-09-21T01:30:09.824Z,9.66
2022-09-21T01:31:09.865Z,9.66
2022-09-21T01:32:09.589Z,9.66
2022-09-21T01:33:09.474Z,9.65
2022-09-21T01:34:09.450Z,9.66
2022-09-21T01:35:09.545Z,9.65
2022-09-21T01:36:09.888Z,9.61
2022-09-21T01:37:12.563Z,9.61
2022-09-21T01:38:09.639Z,9.58
2022-09-21T01:39:09.465Z,9.57
2022-09-21T01:40:09.619Z,9.57
2022-09-21T01:41:09.825Z,9.54
2022-09-21T01:42:09.508Z,9.54
2022-09-21T01:43:09.438Z,9.54
2022-09-21T01:44:09.463Z,9.54
2022-09-21T01:45:09.896Z,9.53
2022-09-21T01:46:09.533Z,9.49
2022-09-21T01:47:09.448Z,9.46
2022-09-21T01:48:12.485Z,9.44
2022-09-21T01:49:09.549Z,9.42
2022-09-21T01:50:09.900Z,9.41
2022-09-21T01:51:09.667Z,9.41
2022-09-21T01:52:09.639Z,9.41
2022-09-21T01:53:09.660Z,9.41
2022-09-21T01:54:09.588Z,9.36
2022-09-21T01:55:09.900Z,9.35
2022-09-21T01:56:09.635Z,9.34
2022-09-21T01:57:09.582Z,9.35
2022-09-21T01:58:09.563Z,9.36
2022-09-21T01:59:12.454Z,9.36
2022-09-21T02:00:09.841Z,9.35
2022-09-21T02:01:09.707Z,9.34
2022-09-21T02:02:09.642Z,9.31
2022-09-21T02:03:09.531Z,9.3
2022-09-21T02:04:09.626Z,9.31
2022-09-21T02:05:09.820Z,9.3
2022-09-21T02:06:09.449Z,9.32
2022-09-21T02:07:09.467Z,9.3
2022-09-21T02:08:09.553Z,9.29
2022-09-21T02:09:09.589Z,9.29
2022-09-21T02:10:15.453Z,9.29
2022-09-21T02:11:09.538Z,9.31
2022-09-21T02:12:09.443Z,9.29
2022-09-21T02:13:09.567Z,9.29
2022-09-21T02:14:09.543Z,9.26
2022-09-21T02:15:09.904Z,9.24
2022-09-21T02:16:09.633Z,9.23
2022-09-21T02:17:09.585Z,9.23
2022-09-21T02:18:09.553Z,9.23
2022-09-21T02:19:09.569Z,9.25
2022-09-21T02:20:09.830Z,9.24
2022-09-21T02:21:12.525Z,9.22
2022-09-21T02:22:09.665Z,9.22
2022-09-21T02:23:09.528Z,9.21
2022-09-21T02:24:09.544Z,9.23
2022-09-21T02:25:09.821Z,9.21
2022-09-21T02:26:09.554Z,9.19
2022-09-21T02:27:09.535Z,9.2
2022-09-21T02:28:09.456Z,9.21
2022-09-21T02:29:09.449Z,9.19
2022-09-21T02:30:50.791Z,9.19
2022-09-21T02:31:09.506Z,9.19
2022-09-21T02:32:12.513Z,9.2
2022-09-21T02:33:09.671Z,9.19
2022-09-21T02:34:09.550Z,9.17
2022-09-21T02:35:09.898Z,9.17
2022-09-21T02:36:09.620Z,9.15
2022-09-21T02:37:09.505Z,9.19
2022-09-21T02:38:09.598Z,9.16
2022-09-21T02:39:09.453Z,9.14
2022-09-21T02:40:09.966Z,9.11
2022-09-21T02:41:09.666Z,9.07
2022-09-21T02:42:09.588Z,9.01
2022-09-21T02:43:12.468Z,8.96
2022-09-21T02:44:09.593Z,8.95
2022-09-21T02:45:09.899Z,8.95
2022-09-21T02:46:09.705Z,8.95
2022-09-21T02:47:09.637Z,8.95
2022-09-21T02:48:09.592Z,8.96
2022-09-21T02:49:09.501Z,8.97
2022-09-21T02:50:09.894Z,8.97
2022-09-21T02:51:09.587Z,8.99
2022-09-21T02:52:09.550Z,8.98
2022-09-21T02:53:09.494Z,8.98
2022-09-21T02:54:12.453Z,8.96
2022-09-21T02:55:09.848Z,8.94
2022-09-21T02:56:09.602Z,8.93
2022-09-21T02:57:09.451Z,8.92
2022-09-21T02:58:09.554Z,8.88
2022-09-21T02:59:09.607Z,8.89
2022-09-21T03:00:09.829Z,8.89
2022-09-21T03:01:09.712Z,8.91
2022-09-21T03:02:09.566Z,8.93
2022-09-21T03:03:09.666Z,8.92
2022-09-21T03:04:09.663Z,8.92
2022-09-21T03:05:15.429Z,8.88
2022-09-21T03:06:09.634Z,8.87
2022-09-21T03:07:09.417Z,8.82
2022-09-21T03:08:09.572Z,8.79
2022-09-21T03:09:09.559Z,8.77
2022-09-21T03:10:09.827Z,8.78
2022-09-21T03:11:09.550Z,8.75
2022-09-21T03:12:09.540Z,8.73
2022-09-21T03:13:09.449Z,8.7
2022-09-21T03:14:09.465Z,8.73
2022-09-21T03:15:09.903Z,8.69
2022-09-21T03:16:12.520Z,8.69
2022-09-21T03:17:09.522Z,8.7
2022-09-21T03:18:09.555Z,8.66
2022-09-21T03:19:09.443Z,8.57
2022-09-21T03:20:09.895Z,8.64
2022-09-21T03:21:09.610Z,8.63
2022-09-21T03:22:09.538Z,8.61
2022-09-21T03:23:09.546Z,8.59
2022-09-21T03:24:09.623Z,8.58
2022-09-21T03:25:09.897Z,8.57
2022-09-21T03:26:09.560Z,8.56
2022-09-21T03:27:12.543Z,8.53
2022-09-21T03:28:09.518Z,8.46
2022-09-21T03:29:09.583Z,8.45
2022-09-21T03:30:09.552Z,8.46
2022-09-21T03:31:09.641Z,8.45
2022-09-21T03:32:09.681Z,8.44
2022-09-21T03:33:09.591Z,8.42
2022-09-21T03:34:09.512Z,8.4
2022-09-21T03:35:09.900Z,8.38
2022-09-21T03:36:09.530Z,8.39
2022-09-21T03:37:09.464Z,8.44
2022-09-21T03:38:12.440Z,8.39
2022-09-21T03:39:09.538Z,8.42
2022-09-21T03:40:09.969Z,8.46
2022-09-21T03:41:09.545Z,8.46
2022-09-21T03:42:09.432Z,8.39
2022-09-21T03:43:09.587Z,8.46
2022-09-21T03:44:09.601Z,8.47
2022-09-21T03:45:09.479Z,8.47
2022-09-21T03:46:09.597Z,8.47
2022-09-21T03:47:09.470Z,8.45
2022-09-21T03:48:09.563Z,8.4
2022-09-21T03:49:12.554Z,8.41
2022-09-21T03:50:10.285Z,8.44
2022-09-21T03:51:09.550Z,8.48
2022-09-21T03:52:09.545Z,8.5
2022-09-21T03:53:09.622Z,8.53
2022-09-21T03:54:09.531Z,8.49
2022-09-21T03:55:09.827Z,8.48
2022-09-21T03:56:09.583Z,8.49
2022-09-21T03:57:09.642Z,8.45
2022-09-21T03:58:09.517Z,8.45
2022-09-21T03:59:13.787Z,8.45
2022-09-21T04:00:15.522Z,8.46
2022-09-21T04:01:09.691Z,8.46
2022-09-21T04:02:09.454Z,8.42
2022-09-21T04:03:09.452Z,8.41
2022-09-21T04:04:09.519Z,8.41
2022-09-21T04:05:09.898Z,8.4
2022-09-21T04:06:09.546Z,8.4
2022-09-21T04:07:09.451Z,8.37
2022-09-21T04:08:09.466Z,8.33
2022-09-21T04:09:09.461Z,8.33
2022-09-21T04:10:09.898Z,8.33
2022-09-21T04:11:27.268Z,8.31
2022-09-21T04:12:27.185Z,8.32
2022-09-21T04:13:45.413Z,8.33
2022-09-21T04:14:45.501Z,8.32
2022-09-21T04:16:03.097Z,8.31
2022-09-21T04:17:02.729Z,8.32
2022-09-21T04:18:19.888Z,8.29
2022-09-21T04:19:19.907Z,8.3
2022-09-21T04:20:37.288Z,8.3
2022-09-21T04:21:36.932Z,8.27
2022-09-21T04:22:54.189Z,8.26
2022-09-21T04:23:54.110Z,8.29
2022-09-21T04:25:11.563Z,8.22
2022-09-21T04:26:11.119Z,8.2
2022-09-21T04:27:28.671Z,8.22
2022-09-21T04:28:28.706Z,8.22
2022-09-21T04:29:45.845Z,8.22
2022-09-21T04:30:45.980Z,8.21
2022-09-21T04:32:02.923Z,8.23
2022-09-21T04:33:02.983Z,8.23
2022-09-21T04:34:20.787Z,8.22
2022-09-21T04:35:20.492Z,8.22
2022-09-21T04:36:37.410Z,8.2
2022-09-21T04:37:37.376Z,8.23
2022-09-21T04:38:54.682Z,8.25
2022-09-21T04:39:54.736Z,8.24
2022-09-21T04:41:11.918Z,8.18
2022-09-21T04:42:11.947Z,8.18
2022-09-21T04:43:29.187Z,8.17
2022-09-21T04:44:29.217Z,8.16
2022-09-21T04:45:46.815Z,8.19
2022-09-21T04:46:46.442Z,8.23
2022-09-21T04:48:03.643Z,8.23
2022-09-21T04:49:03.595Z,8.21
2022-09-21T04:50:20.919Z,8.17
2022-09-21T04:51:20.931Z,8.2
2022-09-21T04:52:37.904Z,8.18
2022-09-21T04:53:37.984Z,8.19
2022-09-21T04:54:55.528Z,8.2
2022-09-21T04:55:55.221Z,8.2
2022-09-21T04:57:12.428Z,8.21
2022-09-21T04:58:12.359Z,8.2
2022-09-21T04:59:29.630Z,8.16
2022-09-21T05:00:30.026Z,8.16
2022-09-21T05:01:46.913Z,8.15
2022-09-21T05:02:46.824Z,8.17
2022-09-21T05:04:04.116Z,8.17
2022-09-21T05:05:04.514Z,8.17
2022-09-21T05:06:21.402Z,8.15
2022-09-21T05:07:21.464Z,8.15
2022-09-21T05:08:38.666Z,8.15
2022-09-21T05:09:38.619Z,8.13
2022-09-21T05:10:56.034Z,8.14
2022-09-21T05:11:55.715Z,8.12
2022-09-21T05:13:15.642Z,8.15
2022-09-21T05:14:12.952Z,8.14
2022-09-21T05:15:30.583Z,8.17
2022-09-21T05:16:30.156Z,8.19
2022-09-21T05:17:47.181Z,8.16
2022-09-21T05:18:47.208Z,8.17
2022-09-21T05:20:05.018Z,8.19
2022-09-21T05:21:04.593Z,8.18
2022-09-21T05:22:25.370Z,8.19
2022-09-21T05:23:21.780Z,8.18
2022-09-21T05:24:38.918Z,8.18
2022-09-21T05:25:39.304Z,8.17
2022-09-21T05:26:56.126Z,8.15
2022-09-21T05:27:56.163Z,8.14
2022-09-21T05:29:13.416Z,8.12
2022-09-21T05:30:13.784Z,8.12
2022-09-21T05:31:30.777Z,8.13
2022-09-21T05:32:30.650Z,8.14
2022-09-21T05:33:47.923Z,8.17
2022-09-21T05:34:48.308Z,8.19
2022-09-21T05:36:05.127Z,8.23
2022-09-21T05:37:05.090Z,8.23
2022-09-21T05:38:22.706Z,8.31
2022-09-21T05:39:22.329Z,8.28
2022-09-21T05:40:40.119Z,8.29
2022-09-21T05:41:39.710Z,8.29
2022-09-21T05:42:56.682Z,8.24
2022-09-21T05:43:56.655Z,8.24
2022-09-21T05:45:14.290Z,8.26
2022-09-21T05:46:14.011Z,8.25
2022-09-21T05:47:31.171Z,8.22
2022-09-21T05:48:31.197Z,8.26
2022-09-21T05:49:48.767Z,8.28
2022-09-21T05:50:48.453Z,8.24
2022-09-21T05:52:05.757Z,8.31
2022-09-21T05:53:05.578Z,8.32
2022-09-21T05:54:22.876Z,8.25
2022-09-21T05:55:23.279Z,8.27
2022-09-21T05:56:40.163Z,8.19
2022-09-21T05:57:40.260Z,8.16
2022-09-21T05:58:57.405Z,8.15
2022-09-21T05:59:57.749Z,8.08
2022-09-21T06:01:14.427Z,7.99
2022-09-21T06:02:14.407Z,7.98
2022-09-21T06:03:31.656Z,7.99
2022-09-21T06:04:31.715Z,8.11
2022-09-21T06:05:49.285Z,8.17
2022-09-21T06:06:48.991Z,8.28
2022-09-21T06:08:06.096Z,8.66
2022-09-21T06:09:06.170Z,8.95
2022-09-21T06:10:23.806Z,10.04
2022-09-21T06:11:23.509Z,10.53
2022-09-21T06:12:40.651Z,11.51
2022-09-21T06:13:40.565Z,12.13
2022-09-21T06:14:57.894Z,12.57
2022-09-21T06:15:58.276Z,13.04
2022-09-21T06:17:14.899Z,13.54
2022-09-21T06:18:17.911Z,13.85
2022-09-21T06:19:32.176Z,14.42
2022-09-21T06:20:32.549Z,14.6
2022-09-21T06:21:49.454Z,14.87
2022-09-21T06:22:49.527Z,14.92
2022-09-21T06:24:06.646Z,15.08
2022-09-21T06:25:07.024Z,15.16
2022-09-21T06:26:23.897Z,15.23
2022-09-21T06:27:23.924Z,15.1
2022-09-21T06:28:41.150Z,15.38
2022-09-21T06:29:41.200Z,15.38
2022-09-21T06:30:58.848Z,15.22
2022-09-21T06:31:58.474Z,15.15
2022-09-21T06:33:15.625Z,14.35
2022-09-21T06:34:15.681Z,13.86
2022-09-21T06:35:32.638Z,12.49
2022-09-21T06:36:32.646Z,11.76
2022-09-21T06:37:49.922Z,10.87
2022-09-21T06:38:49.896Z,10.65
2022-09-21T06:40:07.552Z,10.44
2022-09-21T06:41:07.086Z,10.33
2022-09-21T06:42:24.396Z,10.2
2022-09-21T06:43:24.460Z,10.21
2022-09-21T06:44:41.661Z,10.24
2022-09-21T06:45:42.100Z,10.21
2022-09-21T06:46:58.924Z,10.01
2022-09-21T06:47:58.935Z,9.9
2022-09-21T06:49:16.188Z,9.8
2022-09-21T06:50:16.552Z,9.83
2022-09-21T06:51:33.470Z,9.86
2022-09-21T06:52:33.243Z,9.86
2022-09-21T06:53:50.416Z,9.9
2022-09-21T06:54:50.765Z,9.89
2022-09-21T06:56:07.646Z,9.99
2022-09-21T06:57:07.573Z,10.05
2022-09-21T06:58:24.884Z,10.15
2022-09-21T06:59:24.814Z,10.18
2022-09-21T07:00:42.725Z,10.25
2022-09-21T07:01:42.170Z,10.27
2022-09-21T07:02:59.390Z,10.27
2022-09-21T07:03:59.321Z,10.26
2022-09-21T07:05:17.021Z,10.32
2022-09-21T07:06:16.570Z,10.45
2022-09-21T07:07:33.646Z,10.45
2022-09-21T07:10:07.227Z,10.56
2022-09-21T07:10:50.937Z,10.54
2022-09-21T07:12:08.148Z,10.41
2022-09-21T07:13:08.085Z,10.39
2022-09-21T07:14:25.749Z,10.44
2022-09-21T07:15:25.765Z,10.46
2022-09-21T07:16:42.465Z,10.56
2022-09-21T07:17:42.481Z,10.59
2022-09-21T07:19:10.078Z,10.66
2022-09-21T07:20:00.281Z,10.71
2022-09-21T07:21:16.916Z,10.77
2022-09-21T07:22:16.957Z,10.73
2022-09-21T07:23:34.157Z,10.6
2022-09-21T07:24:34.520Z,10.64
2022-09-21T07:25:51.401Z,10.72
2022-09-21T07:26:51.315Z,10.79
2022-09-21T07:28:08.616Z,10.84
2022-09-21T07:29:08.676Z,10.87
2022-09-21T07:30:26.330Z,10.91
2022-09-21T07:31:26.168Z,10.93
2022-09-21T07:32:43.168Z,11.03
2022-09-21T07:33:43.172Z,11.09
2022-09-21T07:35:00.460Z,11.13
2022-09-21T07:36:00.495Z,11.16
2022-09-21T07:37:17.618Z,11.16
2022-09-21T07:38:17.703Z,11.17
2022-09-21T07:39:35.318Z,11.29
2022-09-21T07:40:34.946Z,11.3
2022-09-21T07:41:51.916Z,11.38
2022-09-21T07:42:51.806Z,11.36
2022-09-21T07:44:09.544Z,11.3
2022-09-21T07:45:09.542Z,11.37
2022-09-21T07:46:26.358Z,11.39
2022-09-21T07:47:26.313Z,11.37
2022-09-21T07:48:43.612Z,11.49
2022-09-21T07:49:44.030Z,11.51
2022-09-21T07:51:00.947Z,11.54
2022-09-21T07:52:04.433Z,11.58
2022-09-21T07:53:18.131Z,11.59
2022-09-21T07:54:18.464Z,11.7
2022-09-21T07:55:35.145Z,11.78
2022-09-21T07:56:35.150Z,11.82
2022-09-21T07:57:56.104Z,11.9
2022-09-21T07:58:52.551Z,11.91
2022-09-21T08:00:09.659Z,11.96
2022-09-21T08:01:09.756Z,11.98
2022-09-21T08:02:26.927Z,12.04
2022-09-21T08:03:26.957Z,12.03
2022-09-21T08:04:44.554Z,12.11
2022-09-21T08:05:44.192Z,12.13
2022-09-21T08:07:01.154Z,12.2
2022-09-21T08:08:01.476Z,12.26
2022-09-21T08:09:18.657Z,12.37
2022-09-21T08:10:18.594Z,12.39
2022-09-21T08:11:35.935Z,12.35
2022-09-21T08:12:35.976Z,12.38
2022-09-21T08:13:53.468Z,12.43
2022-09-21T08:14:53.050Z,12.41
2022-09-21T08:16:10.226Z,12.5
2022-09-21T08:17:10.195Z,12.61
2022-09-21T08:18:27.423Z,12.66
2022-09-21T08:19:27.831Z,12.64
2022-09-21T08:20:45.024Z,12.69
2022-09-21T08:21:44.682Z,12.81
2022-09-21T08:23:01.904Z,12.83
2022-09-21T08:24:02.280Z,12.86
2022-09-21T08:25:18.907Z,12.96
2022-09-21T08:26:18.992Z,12.96
2022-09-21T08:27:36.368Z,13
2022-09-21T08:28:36.788Z,13.02
2022-09-21T08:29:53.388Z,13.04
2022-09-21T08:30:53.330Z,13.08
2022-09-21T08:32:22.872Z,13.21
2022-09-21T08:33:11.033Z,13.26
2022-09-21T08:34:27.883Z,13.39
2022-09-21T08:35:28.291Z,13.44
2022-09-21T08:36:45.101Z,13.59
2022-09-21T08:37:45.125Z,13.58
2022-09-21T08:39:02.764Z,13.59
2022-09-21T08:40:02.515Z,13.58
2022-09-21T08:41:19.657Z,13.63
2022-09-21T08:42:19.683Z,13.63
2022-09-21T08:43:37.979Z,13.64
2022-09-21T08:44:37.008Z,13.71
2022-09-21T08:45:54.152Z,13.78
2022-09-21T08:46:54.260Z,13.81
2022-09-21T08:48:17.726Z,13.79
2022-09-21T08:49:11.178Z,13.9
2022-09-21T08:50:28.761Z,13.94
2022-09-21T08:51:28.326Z,13.99
2022-09-21T08:52:47.371Z,14.05
2022-09-21T08:53:46.025Z,14.08
2022-09-21T08:55:02.992Z,14.24
2022-09-21T08:56:02.891Z,14.14
2022-09-21T08:57:20.149Z,14.12
2022-09-21T08:58:20.146Z,14.1
2022-09-21T08:59:37.439Z,14.04
2022-09-21T09:00:37.493Z,14.16
2022-09-21T09:01:55.151Z,14.39
2022-09-21T09:02:55.521Z,14.45
2022-09-21T09:04:11.624Z,14.43
2022-09-21T09:05:12.032Z,14.55
2022-09-21T09:06:28.932Z,14.53
2022-09-21T09:07:28.848Z,14.51
2022-09-21T09:08:46.518Z,14.57
2022-09-21T09:09:46.181Z,14.62
2022-09-21T09:11:03.356Z,14.68
2022-09-21T09:12:06.302Z,14.65
2022-09-21T09:13:21.196Z,14.71
2022-09-21T09:14:20.721Z,14.65
2022-09-21T09:15:37.912Z,14.77
2022-09-21T09:16:37.955Z,14.85
2022-09-21T09:17:55.517Z,14.92
2022-09-21T09:18:55.282Z,14.99
2022-09-21T09:20:12.419Z,15.13
2022-09-21T09:21:12.859Z,15.2
2022-09-21T09:22:29.881Z,15.27
2022-09-21T09:23:29.472Z,15.26
2022-09-21T09:24:46.619Z,15.38
2022-09-21T09:25:46.649Z,15.36
2022-09-21T09:27:03.875Z,15.33
2022-09-21T09:28:04.286Z,15.49
2022-09-21T09:29:21.170Z,15.61
2022-09-21T09:30:21.281Z,15.58
2022-09-21T09:31:38.452Z,15.6
2022-09-21T09:32:38.501Z,15.55
2022-09-21T09:33:55.540Z,15.54
2022-09-21T09:34:55.369Z,15.59
2022-09-21T09:36:12.945Z,15.83
2022-09-21T09:37:12.872Z,15.87
2022-09-21T09:38:30.277Z,15.8
2022-09-21T09:39:29.841Z,15.72
2022-09-21T09:40:47.511Z,15.74
2022-09-21T09:41:47.080Z,15.74
2022-09-21T09:43:05.104Z,15.9
2022-09-21T09:44:04.426Z,15.96
2022-09-21T09:45:23.877Z,16.07
2022-09-21T09:46:21.732Z,16.06
2022-09-21T09:47:39.287Z,16.08
2022-09-21T09:48:38.983Z,16.12
2022-09-21T09:49:55.925Z,16.19
2022-09-21T09:50:55.854Z,16.24
2022-09-21T09:52:13.528Z,16.32
2022-09-21T09:53:13.460Z,16.27
2022-09-21T09:54:30.777Z,16.27
2022-09-21T09:55:30.504Z,16.24
2022-09-21T09:56:47.646Z,16.22
2022-09-21T09:57:47.650Z,16.27
2022-09-21T09:59:05.235Z,16.4
2022-09-21T10:00:04.807Z,16.39
2022-09-21T10:01:22.204Z,16.32
2022-09-21T10:02:22.085Z,16.31
2022-09-21T10:03:39.461Z,16.43
2022-09-21T10:04:39.914Z,16.52
2022-09-21T10:05:56.583Z,16.64
2022-09-21T10:06:56.523Z,16.66
2022-09-21T10:08:13.903Z,16.67
2022-09-21T10:09:14.302Z,16.68
2022-09-21T10:10:31.205Z,16.78
2022-09-21T10:11:31.208Z,16.79
2022-09-21T10:12:48.377Z,16.91
2022-09-21T10:13:48.403Z,16.94
2022-09-21T10:15:05.797Z,16.94
2022-09-21T10:16:05.554Z,16.92
2022-09-21T10:17:22.634Z,16.99
2022-09-21T10:18:22.696Z,17.1
2022-09-21T10:19:40.267Z,17.09
2022-09-21T10:20:39.954Z,17.1
2022-09-21T10:21:57.225Z,17.08
2022-09-21T10:22:57.103Z,17.08
2022-09-21T10:24:14.787Z,17.24
2022-09-21T10:25:14.328Z,17.29
2022-09-21T10:26:31.641Z,17.3
2022-09-21T10:27:31.698Z,17.34
2022-09-21T10:28:49.274Z,17.36
2022-09-21T10:29:48.953Z,17.4
2022-09-21T10:31:06.009Z,17.36
2022-09-21T10:32:06.023Z,17.37
2022-09-21T10:33:23.208Z,17.47
2022-09-21T10:34:23.560Z,17.54
2022-09-21T10:35:40.370Z,17.62
2022-09-21T10:36:40.425Z,17.64
2022-09-21T10:38:01.360Z,17.64
2022-09-21T10:38:58.017Z,17.62
2022-09-21T10:40:14.963Z,17.65
2022-09-21T10:41:14.848Z,17.7
2022-09-21T10:42:32.127Z,17.85
2022-09-21T10:43:34.415Z,17.99
2022-09-21T10:44:49.187Z,17.98
2022-09-21T10:45:49.083Z,17.94
2022-09-21T10:47:06.374Z,18
2022-09-21T10:48:06.314Z,18.1
2022-09-21T10:49:24.054Z,18.15
2022-09-21T10:50:23.577Z,18.19
2022-09-21T10:51:41.255Z,18.19
2022-09-21T10:52:41.047Z,18.18
2022-09-21T10:53:58.561Z,18.48
2022-09-21T10:54:58.209Z,18.52
2022-09-21T10:56:16.746Z,18.32
2022-09-21T10:57:15.365Z,18.27
2022-09-21T10:58:33.102Z,18.03
2022-09-21T10:59:32.621Z,18
2022-09-21T11:00:49.629Z,18.15
2022-09-21T11:01:49.788Z,18.24
2022-09-21T11:03:07.309Z,18.31
2022-09-21T11:04:07.065Z,18.36
2022-09-21T11:05:24.079Z,18.5
2022-09-21T11:06:24.164Z,18.53
2022-09-21T11:07:41.137Z,18.38
2022-09-21T11:08:41.549Z,18.43
2022-09-21T11:09:58.662Z,18.67
2022-09-21T11:10:58.690Z,18.76
2022-09-21T11:12:15.861Z,18.93
2022-09-21T11:13:16.277Z,19.02
2022-09-21T11:14:33.136Z,18.9
2022-09-21T11:15:33.220Z,18.83
2022-09-21T11:16:50.438Z,18.73
2022-09-21T11:17:50.518Z,18.85
2022-09-21T11:19:08.028Z,19.15
2022-09-21T11:20:07.687Z,19.17
2022-09-21T11:21:24.643Z,19.15
2022-09-21T11:22:24.540Z,19.09
2022-09-21T11:23:42.502Z,19.19
2022-09-21T11:24:41.952Z,19.27
2022-09-21T11:25:59.157Z,19.3
2022-09-21T11:26:59.188Z,19.28
2022-09-21T11:28:16.943Z,19.15
2022-09-21T11:29:16.411Z,19.2
2022-09-21T11:30:33.754Z,19.28
2022-09-21T11:31:33.655Z,19.31
2022-09-21T11:32:51.279Z,19.22
2022-09-21T11:33:50.818Z,19.21
2022-09-21T11:35:08.138Z,19.32
2022-09-21T11:36:08.077Z,19.33
2022-09-21T11:37:25.110Z,19.14
2022-09-21T11:38:25.507Z,19.06
2022-09-21T11:39:42.764Z,19.26
2022-09-21T11:40:42.539Z,19.32
2022-09-21T11:41:59.682Z,19.36
2022-09-21T11:42:59.966Z,19.39
2022-09-21T11:44:19.052Z,19.5
2022-09-21T11:45:16.944Z,19.49
2022-09-21T11:46:34.266Z,19.15
2022-09-21T11:47:34.231Z,19.06
2022-09-21T11:48:51.394Z,19.03
2022-09-21T11:49:59.002Z,19.22
2022-09-21T11:51:08.651Z,19.36
2022-09-21T11:52:08.583Z,19.4
2022-09-21T11:53:26.026Z,19.54
2022-09-21T11:54:26.038Z,19.64
2022-09-21T11:55:42.900Z,19.66
2022-09-21T11:56:42.815Z,19.72
2022-09-21T11:58:00.595Z,19.8
2022-09-21T11:59:00.246Z,19.88
2022-09-21T12:00:17.248Z,19.91
2022-09-21T12:01:17.265Z,19.94
2022-09-21T12:02:35.247Z,20.03
2022-09-21T12:03:34.701Z,19.88
2022-09-21T12:04:51.663Z,19.8
2022-09-21T12:05:51.785Z,19.71
2022-09-21T12:07:12.093Z,19.39
2022-09-21T12:08:09.435Z,19.44
2022-09-21T12:09:26.534Z,19.73
2022-09-21T12:10:26.221Z,19.65
2022-09-21T12:11:43.359Z,19.56
2022-09-21T12:12:43.775Z,19.55
2022-09-21T12:14:00.625Z,19.61
2022-09-21T12:15:00.562Z,19.64
2022-09-21T12:16:17.953Z,19.62
2022-09-21T12:17:17.844Z,19.85
2022-09-21T12:18:35.580Z,20.29
2022-09-21T12:19:35.114Z,20.43
2022-09-21T12:20:52.441Z,20.61
2022-09-21T12:21:52.338Z,20.69
2022-09-21T12:23:10.011Z,20.81
2022-09-21T12:24:10.021Z,20.79
2022-09-21T12:25:26.919Z,20.79
2022-09-21T12:26:26.980Z,20.79
2022-09-21T12:27:44.527Z,20.95
2022-09-21T12:28:44.214Z,21
2022-09-21T12:30:01.158Z,21.01
2022-09-21T12:31:01.263Z,20.68
2022-09-21T12:32:18.390Z,20.09
2022-09-21T12:33:18.780Z,19.97
2022-09-21T12:34:36.041Z,19.47
2022-09-21T12:35:35.666Z,19.36
2022-09-21T12:36:52.911Z,19.02
2022-09-21T12:37:52.834Z,18.78
2022-09-21T12:39:10.162Z,18.65
2022-09-21T12:40:10.551Z,18.82
2022-09-21T12:41:27.437Z,18.99
2022-09-21T12:42:27.435Z,18.65
2022-09-21T12:43:44.626Z,18.44
2022-09-21T12:44:45.979Z,18.3
2022-09-21T12:46:01.694Z,18.35
2022-09-21T12:47:01.610Z,18.48
2022-09-21T12:48:22.608Z,19.19
2022-09-21T12:49:19.220Z,19.44
2022-09-21T12:50:36.490Z,19.79
2022-09-21T12:51:36.076Z,20.01
2022-09-21T12:52:53.350Z,20.36
2022-09-21T12:53:53.292Z,20.37
2022-09-21T12:55:11.365Z,20.75
2022-09-21T12:56:10.736Z,20.95
2022-09-21T12:57:45.573Z,21.33
2022-09-21T12:58:27.943Z,21.27
2022-09-21T12:59:45.260Z,21.43
2022-09-21T13:00:44.813Z,21.34
2022-09-21T13:02:02.205Z,20.68
2022-09-21T13:03:02.786Z,20.67
2022-09-21T13:04:19.789Z,20.92
2022-09-21T13:05:19.472Z,21.3
2022-09-21T13:06:36.992Z,21.74
2022-09-21T13:07:36.697Z,21.9
2022-09-21T13:08:54.254Z,22.01
2022-09-21T13:09:53.837Z,22.01
2022-09-21T13:11:11.130Z,22.23
2022-09-21T13:12:11.209Z,22.36
2022-09-21T13:13:28.166Z,22.46
2022-09-21T13:14:28.515Z,22.44
2022-09-21T13:15:45.632Z,22.29
2022-09-21T13:16:45.656Z,22.15
2022-09-21T13:18:02.893Z,22.02
2022-09-21T13:19:03.259Z,21.76
2022-09-21T13:20:19.874Z,21.09
2022-09-21T13:21:20.285Z,21.06
2022-09-21T13:22:37.129Z,20.99
2022-09-21T13:23:37.098Z,21.16
2022-09-21T13:24:54.783Z,21.16
2022-09-21T13:25:54.493Z,21.13
2022-09-21T13:27:11.638Z,20.81
2022-09-21T13:28:11.717Z,20.68
2022-09-21T13:29:28.903Z,20
2022-09-21T13:30:28.965Z,19.63
2022-09-21T13:31:46.258Z,19.28
2022-09-21T13:32:46.246Z,19.27
2022-09-21T13:34:03.525Z,19.33
2022-09-21T13:35:03.249Z,19.37
2022-09-21T13:36:20.925Z,19.59
2022-09-21T13:37:20.467Z,19.61
2022-09-21T13:38:37.649Z,19.48
2022-09-21T13:39:38.021Z,19.67
2022-09-21T13:40:54.637Z,20.19
2022-09-21T13:42:03.207Z,20.19
2022-09-21T13:43:12.511Z,20.34
2022-09-21T13:44:12.657Z,20.23
2022-09-21T13:45:29.396Z,20.12
2022-09-21T13:46:29.318Z,20.14
2022-09-21T13:47:46.692Z,20.23
2022-09-21T13:48:46.741Z,20.18
2022-09-21T13:50:04.295Z,19.9
2022-09-21T13:51:04.290Z,19.83
2022-09-21T13:52:20.903Z,19.81
2022-09-21T13:53:20.959Z,19.68
2022-09-21T13:54:38.198Z,19.79
2022-09-21T13:55:38.236Z,19.8
2022-09-21T13:56:55.388Z,19.77
2022-09-21T13:57:55.404Z,19.71
2022-09-21T13:59:13.183Z,19.32
2022-09-21T14:00:12.665Z,19.27
2022-09-21T14:01:46.231Z,19.29
2022-09-21T14:02:29.944Z,19.3
2022-09-21T14:03:46.923Z,19.27
2022-09-21T14:04:47.308Z,19.26
2022-09-21T14:06:04.791Z,19.28
2022-09-21T14:07:04.515Z,19.33
2022-09-21T14:08:21.650Z,19.22
2022-09-21T14:09:22.001Z,19.2
2022-09-21T14:10:38.657Z,18.94
2022-09-21T14:11:38.618Z,18.93
2022-09-21T14:12:55.886Z,19
2022-09-21T14:13:55.898Z,18.98
2022-09-21T14:15:13.472Z,18.94
2022-09-21T14:16:13.124Z,18.96
2022-09-21T14:17:30.393Z,18.99
2022-09-21T14:18:30.343Z,18.99
2022-09-21T14:19:47.437Z,18.96
2022-09-21T14:20:47.791Z,18.94
2022-09-21T14:22:04.917Z,18.78
2022-09-21T14:23:04.845Z,18.74
2022-09-21T14:24:22.290Z,18.63